sensor_id;sensor_type;location;lat;lon;timestamp;pressure;altitude;pressure_sealevel;temperature;humidity
24234;BME280;12365;43.554;1.388;2023-12-07T00:01:28;100072.84;;;4.32;62.46
24234;BME280;12365;43.554;1.388;2023-12-07T00:03:53;100069.22;;;4.30;62.16
24234;BME280;12365;43.554;1.388;2023-12-07T00:06:18;100057.66;;;4.25;62.30
24234;BME280;12365;43.554;1.388;2023-12-07T00:08:44;100061.78;;;4.23;62.37
24234;BME280;12365;43.554;1.388;2023-12-07T00:11:09;100059.88;;;4.20;62.67
24234;BME280;12365;43.554;1.388;2023-12-07T00:13:35;100062.13;;;4.16;62.22
24234;BME280;12365;43.554;1.388;2023-12-07T00:16:00;100068.72;;;4.12;62.61
24234;BME280;12365;43.554;1.388;2023-12-07T00:18:26;100067.94;;;4.13;62.73
24234;BME280;12365;43.554;1.388;2023-12-07T00:20:51;100072.31;;;4.14;62.85
24234;BME280;12365;43.554;1.388;2023-12-07T00:23:16;100073.13;;;4.13;62.30
24234;BME280;12365;43.554;1.388;2023-12-07T00:25:42;100069.75;;;4.14;62.38
24234;BME280;12365;43.554;1.388;2023-12-07T00:28:07;100068.03;;;4.15;62.60
24234;BME280;12365;43.554;1.388;2023-12-07T00:30:32;100067.94;;;4.13;62.81
24234;BME280;12365;43.554;1.388;2023-12-07T00:32:59;100061.63;;;4.09;62.33
24234;BME280;12365;43.554;1.388;2023-12-07T00:35:24;100054.69;;;4.08;62.32
24234;BME280;12365;43.554;1.388;2023-12-07T00:37:50;100065.75;;;4.07;62.32
24234;BME280;12365;43.554;1.388;2023-12-07T00:40:15;100068.25;;;4.06;62.53
24234;BME280;12365;43.554;1.388;2023-12-07T00:42:41;100071.59;;;4.05;62.67
24234;BME280;12365;43.554;1.388;2023-12-07T00:45:07;100073.19;;;4.03;62.75
24234;BME280;12365;43.554;1.388;2023-12-07T00:47:32;100082.72;;;4.04;62.69
24234;BME280;12365;43.554;1.388;2023-12-07T00:49:57;100085.28;;;4.04;62.49
24234;BME280;12365;43.554;1.388;2023-12-07T00:52:23;100082.72;;;4.04;62.82
24234;BME280;12365;43.554;1.388;2023-12-07T00:54:48;100091.47;;;4.06;62.85
24234;BME280;12365;43.554;1.388;2023-12-07T00:57:13;100088.09;;;4.07;62.73
24234;BME280;12365;43.554;1.388;2023-12-07T00:59:39;100103.81;;;4.10;62.81
24234;BME280;12365;43.554;1.388;2023-12-07T01:02:04;100095.84;;;4.07;62.86
24234;BME280;12365;43.554;1.388;2023-12-07T01:04:31;100093.94;;;4.04;62.57
24234;BME280;12365;43.554;1.388;2023-12-07T01:06:57;100086.09;;;4.03;62.30
24234;BME280;12365;43.554;1.388;2023-12-07T01:09:23;100089.81;;;3.74;63.24
24234;BME280;12365;43.554;1.388;2023-12-07T01:11:49;100098.78;;;3.89;62.77
24234;BME280;12365;43.554;1.388;2023-12-07T01:14:14;100094.88;;;3.95;62.52
24234;BME280;12365;43.554;1.388;2023-12-07T01:16:39;100097.47;;;3.95;62.41
24234;BME280;12365;43.554;1.388;2023-12-07T01:19:05;100094.00;;;3.94;62.95
24234;BME280;12365;43.554;1.388;2023-12-07T01:21:32;100100.03;;;3.95;62.67
24234;BME280;12365;43.554;1.388;2023-12-07T01:23:57;100091.41;;;3.94;62.42
24234;BME280;12365;43.554;1.388;2023-12-07T01:26:23;100096.81;;;3.97;63.08
24234;BME280;12365;43.554;1.388;2023-12-07T01:28:49;100103.13;;;4.01;62.73
24234;BME280;12365;43.554;1.388;2023-12-07T01:31:14;100097.81;;;3.99;62.62
24234;BME280;12365;43.554;1.388;2023-12-07T01:33:39;100104.69;;;3.99;62.54
24234;BME280;12365;43.554;1.388;2023-12-07T01:36:05;100099.66;;;4.00;62.99
24234;BME280;12365;43.554;1.388;2023-12-07T01:38:30;100095.16;;;3.98;62.66
24234;BME280;12365;43.554;1.388;2023-12-07T01:40:56;100088.16;;;3.97;62.76
24234;BME280;12365;43.554;1.388;2023-12-07T01:43:22;100081.97;;;3.95;62.87
24234;BME280;12365;43.554;1.388;2023-12-07T01:45:49;100084.56;;;3.95;62.89
24234;BME280;12365;43.554;1.388;2023-12-07T01:48:19;100074.00;;;3.91;62.54
24234;BME280;12365;43.554;1.388;2023-12-07T01:50:45;100064.47;;;3.90;62.57
24234;BME280;12365;43.554;1.388;2023-12-07T01:53:11;100072.22;;;3.90;62.98
24234;BME280;12365;43.554;1.388;2023-12-07T01:55:37;100083.28;;;3.89;62.66
24234;BME280;12365;43.554;1.388;2023-12-07T01:58:04;100079.94;;;3.90;62.99
24234;BME280;12365;43.554;1.388;2023-12-07T02:00:29;100082.53;;;3.90;62.62
24234;BME280;12365;43.554;1.388;2023-12-07T02:02:55;100078.13;;;3.89;62.58
24234;BME280;12365;43.554;1.388;2023-12-07T02:05:21;100075.31;;;3.86;62.79
24234;BME280;12365;43.554;1.388;2023-12-07T02:07:46;100076.13;;;3.85;62.72
24234;BME280;12365;43.554;1.388;2023-12-07T02:10:12;100074.19;;;3.83;62.88
24234;BME280;12365;43.554;1.388;2023-12-07T02:12:39;100070.72;;;3.82;62.98
24234;BME280;12365;43.554;1.388;2023-12-07T02:15:05;100075.59;;;3.79;62.53
24234;BME280;12365;43.554;1.388;2023-12-07T02:25:08;100078.47;;;3.72;62.69
24234;BME280;12365;43.554;1.388;2023-12-07T02:27:41;100079.28;;;3.71;62.90
24234;BME280;12365;43.554;1.388;2023-12-07T02:30:09;100073.88;;;3.68;62.56
24234;BME280;12365;43.554;1.388;2023-12-07T02:32:38;100080.56;;;3.66;62.90
24234;BME280;12365;43.554;1.388;2023-12-07T02:35:05;100086.53;;;3.65;62.60
24234;BME280;12365;43.554;1.388;2023-12-07T02:37:37;100088.09;;;3.63;62.78
24234;BME280;12365;43.554;1.388;2023-12-07T02:40:06;100078.41;;;3.60;62.88
24234;BME280;12365;43.554;1.388;2023-12-07T02:42:36;100074.16;;;3.61;62.79
24234;BME280;12365;43.554;1.388;2023-12-07T02:45:04;100065.38;;;3.59;62.59
24234;BME280;12365;43.554;1.388;2023-12-07T02:47:30;100065.38;;;3.59;62.94
24234;BME280;12365;43.554;1.388;2023-12-07T02:49:55;100053.38;;;3.59;62.68
24234;BME280;12365;43.554;1.388;2023-12-07T02:52:21;100049.16;;;3.60;62.66
24234;BME280;12365;43.554;1.388;2023-12-07T02:54:46;100046.69;;;3.61;62.85
24234;BME280;12365;43.554;1.388;2023-12-07T02:57:13;100038.03;;;3.61;63.15
24234;BME280;12365;43.554;1.388;2023-12-07T02:59:40;100036.50;;;3.63;62.72
24234;BME280;12365;43.554;1.388;2023-12-07T03:02:05;100029.50;;;3.62;62.88
24234;BME280;12365;43.554;1.388;2023-12-07T03:04:31;100026.19;;;3.63;63.08
24234;BME280;12365;43.554;1.388;2023-12-07T03:06:56;100022.81;;;3.64;62.62
24234;BME280;12365;43.554;1.388;2023-12-07T03:09:21;100018.53;;;3.64;62.64
24234;BME280;12365;43.554;1.388;2023-12-07T03:11:47;100024.63;;;3.65;62.53
24234;BME280;12365;43.554;1.388;2023-12-07T03:14:12;100020.97;;;3.41;63.24
24234;BME280;12365;43.554;1.388;2023-12-07T03:16:38;100026.03;;;3.29;63.91
24234;BME280;12365;43.554;1.388;2023-12-07T03:19:04;100025.06;;;3.27;64.26
24234;BME280;12365;43.554;1.388;2023-12-07T03:21:29;100027.63;;;3.27;64.37
24234;BME280;12365;43.554;1.388;2023-12-07T03:23:54;100019.91;;;3.27;64.25
24234;BME280;12365;43.554;1.388;2023-12-07T03:26:20;100025.06;;;3.27;64.50
24234;BME280;12365;43.554;1.388;2023-12-07T03:28:46;100022.56;;;3.29;64.37
24234;BME280;12365;43.554;1.388;2023-12-07T03:31:11;100026.84;;;3.28;64.22
24234;BME280;12365;43.554;1.388;2023-12-07T03:33:36;100026.59;;;3.25;64.43
24234;BME280;12365;43.554;1.388;2023-12-07T03:36:03;100033.06;;;3.20;64.54
24234;BME280;12365;43.554;1.388;2023-12-07T03:38:29;100035.41;;;3.17;64.75
24234;BME280;12365;43.554;1.388;2023-12-07T03:40:54;100040.56;;;3.17;64.54
24234;BME280;12365;43.554;1.388;2023-12-07T03:43:20;100019.94;;;3.17;64.51
24234;BME280;12365;43.554;1.388;2023-12-07T03:45:46;100009.63;;;3.17;64.50
24234;BME280;12365;43.554;1.388;2023-12-07T03:48:11;100012.44;;;3.20;64.47
24234;BME280;12365;43.554;1.388;2023-12-07T03:50:36;100007.28;;;3.20;64.40
24234;BME280;12365;43.554;1.388;2023-12-07T03:53:02;100001.34;;;3.21;64.49
24234;BME280;12365;43.554;1.388;2023-12-07T03:55:27;100000.31;;;3.19;64.47
24234;BME280;12365;43.554;1.388;2023-12-07T03:57:53;100001.88;;;3.17;64.21
24234;BME280;12365;43.554;1.388;2023-12-07T04:00:18;100006.00;;;3.15;64.53
24234;BME280;12365;43.554;1.388;2023-12-07T04:02:43;100012.56;;;3.11;64.56
24234;BME280;12365;43.554;1.388;2023-12-07T04:05:09;100016.59;;;3.08;64.57
24234;BME280;12365;43.554;1.388;2023-12-07T04:07:34;100028.22;;;3.02;64.17
24234;BME280;12365;43.554;1.388;2023-12-07T04:09:59;100027.97;;;2.99;64.54
24234;BME280;12365;43.554;1.388;2023-12-07T04:12:25;100023.72;;;3.00;64.58
24234;BME280;12365;43.554;1.388;2023-12-07T04:14:50;100011.06;;;3.03;64.70
24234;BME280;12365;43.554;1.388;2023-12-07T04:17:17;99994.84;;;3.04;64.54
24234;BME280;12365;43.554;1.388;2023-12-07T04:19:42;99999.59;;;3.10;64.86
24234;BME280;12365;43.554;1.388;2023-12-07T04:22:08;99998.03;;;3.12;64.74
24234;BME280;12365;43.554;1.388;2023-12-07T04:24:33;100007.41;;;3.11;64.49
24234;BME280;12365;43.554;1.388;2023-12-07T04:26:58;100008.06;;;3.09;64.81
24234;BME280;12365;43.554;1.388;2023-12-07T04:29:24;100009.00;;;3.09;64.60
24234;BME280;12365;43.554;1.388;2023-12-07T04:31:49;100014.81;;;3.07;64.32
24234;BME280;12365;43.554;1.388;2023-12-07T04:34:14;100023.84;;;3.01;64.44
24234;BME280;12365;43.554;1.388;2023-12-07T04:36:40;100017.16;;;2.93;64.66
24234;BME280;12365;43.554;1.388;2023-12-07T04:39:05;100025.28;;;2.88;64.42
24234;BME280;12365;43.554;1.388;2023-12-07T04:41:30;100013.94;;;2.86;64.90
24234;BME280;12365;43.554;1.388;2023-12-07T04:43:56;100004.81;;;2.89;64.83
24234;BME280;12365;43.554;1.388;2023-12-07T04:46:21;99997.47;;;2.94;64.85
24234;BME280;12365;43.554;1.388;2023-12-07T04:48:46;99996.81;;;2.96;64.89
24234;BME280;12365;43.554;1.388;2023-12-07T04:51:12;100001.31;;;2.99;64.67
24234;BME280;12365;43.554;1.388;2023-12-07T04:53:37;99997.28;;;3.02;65.02
24234;BME280;12365;43.554;1.388;2023-12-07T04:56:03;100003.47;;;3.04;64.97
24234;BME280;12365;43.554;1.388;2023-12-07T04:58:28;99990.59;;;3.04;64.68
24234;BME280;12365;43.554;1.388;2023-12-07T05:00:53;99997.53;;;3.06;64.80
24234;BME280;12365;43.554;1.388;2023-12-07T05:03:19;99979.50;;;3.06;64.78
24234;BME280;12365;43.554;1.388;2023-12-07T05:05:44;99978.47;;;3.03;64.76
24234;BME280;12365;43.554;1.388;2023-12-07T05:08:09;99968.16;;;3.03;65.07
24234;BME280;12365;43.554;1.388;2023-12-07T05:10:35;99976.03;;;3.05;64.87
24234;BME280;12365;43.554;1.388;2023-12-07T05:13:00;99982.97;;;3.06;64.87
24234;BME280;12365;43.554;1.388;2023-12-07T05:15:25;99980.53;;;3.08;65.03
24234;BME280;12365;43.554;1.388;2023-12-07T05:17:51;99962.34;;;3.06;65.01
24234;BME280;12365;43.554;1.388;2023-12-07T05:20:16;99963.28;;;3.07;64.93
24234;BME280;12365;43.554;1.388;2023-12-07T05:22:43;99959.66;;;3.04;64.71
24234;BME280;12365;43.554;1.388;2023-12-07T05:25:09;99954.28;;;3.01;64.83
24234;BME280;12365;43.554;1.388;2023-12-07T05:27:34;99950.66;;;2.99;65.25
24234;BME280;12365;43.554;1.388;2023-12-07T05:29:59;99951.78;;;3.03;65.05
24234;BME280;12365;43.554;1.388;2023-12-07T05:32:25;99947.53;;;3.03;65.12
24234;BME280;12365;43.554;1.388;2023-12-07T05:34:50;99928.75;;;3.04;65.06
24234;BME280;12365;43.554;1.388;2023-12-07T05:37:15;99922.03;;;3.07;65.24
24234;BME280;12365;43.554;1.388;2023-12-07T05:39:41;99915.31;;;3.09;65.21
24234;BME280;12365;43.554;1.388;2023-12-07T05:42:06;99911.97;;;3.10;64.95
24234;BME280;12365;43.554;1.388;2023-12-07T05:44:31;99901.66;;;3.10;64.85
24234;BME280;12365;43.554;1.388;2023-12-07T05:46:57;99906.91;;;3.11;64.92
24234;BME280;12365;43.554;1.388;2023-12-07T05:49:23;99922.03;;;3.07;65.01
24234;BME280;12365;43.554;1.388;2023-12-07T05:51:48;99935.44;;;3.02;65.00
24234;BME280;12365;43.554;1.388;2023-12-07T05:54:14;99931.47;;;2.96;64.94
24234;BME280;12365;43.554;1.388;2023-12-07T05:56:40;99929.53;;;2.93;65.02
24234;BME280;12365;43.554;1.388;2023-12-07T05:59:06;99924.38;;;2.93;65.32
24234;BME280;12365;43.554;1.388;2023-12-07T06:01:31;99915.91;;;2.94;65.13
24234;BME280;12365;43.554;1.388;2023-12-07T06:03:58;99919.50;;;2.96;65.12
24234;BME280;12365;43.554;1.388;2023-12-07T06:06:23;99923.09;;;2.98;64.96
24234;BME280;12365;43.554;1.388;2023-12-07T06:08:49;99928.88;;;2.96;65.19
24234;BME280;12365;43.554;1.388;2023-12-07T06:11:14;99933.16;;;2.95;64.92
24234;BME280;12365;43.554;1.388;2023-12-07T06:13:40;99928.78;;;2.94;65.39
24234;BME280;12365;43.554;1.388;2023-12-07T06:16:05;99938.06;;;2.92;65.24
24234;BME280;12365;43.554;1.388;2023-12-07T06:18:31;99934.69;;;2.93;65.27
24234;BME280;12365;43.554;1.388;2023-12-07T06:20:56;99946.81;;;2.94;65.04
24234;BME280;12365;43.554;1.388;2023-12-07T06:23:21;99929.53;;;2.93;65.13
24234;BME280;12365;43.554;1.388;2023-12-07T06:25:47;99925.31;;;2.94;65.31
24234;BME280;12365;43.554;1.388;2023-12-07T06:28:12;99921.94;;;2.95;65.25
24234;BME280;12365;43.554;1.388;2023-12-07T06:30:38;99923.88;;;2.97;65.25
24234;BME280;12365;43.554;1.388;2023-12-07T06:33:03;99921.28;;;2.97;65.54
24234;BME280;12365;43.554;1.388;2023-12-07T06:35:29;99924.75;;;2.98;65.08
24234;BME280;12365;43.554;1.388;2023-12-07T06:37:55;99916.16;;;2.97;65.25
24234;BME280;12365;43.554;1.388;2023-12-07T06:40:21;99921.28;;;2.97;65.37
24234;BME280;12365;43.554;1.388;2023-12-07T06:42:46;99918.72;;;2.97;65.44
24234;BME280;12365;43.554;1.388;2023-12-07T06:45:13;99905.84;;;2.97;65.25
24234;BME280;12365;43.554;1.388;2023-12-07T06:47:40;99906.72;;;2.98;65.33
24234;BME280;12365;43.554;1.388;2023-12-07T06:50:08;99908.53;;;2.99;65.18
24234;BME280;12365;43.554;1.388;2023-12-07T06:52:35;99907.75;;;3.00;64.96
24234;BME280;12365;43.554;1.388;2023-12-07T06:55:01;99899.13;;;2.99;65.58
24234;BME280;12365;43.554;1.388;2023-12-07T06:57:26;99900.91;;;3.00;65.31
24234;BME280;12365;43.554;1.388;2023-12-07T06:59:52;99909.09;;;3.17;64.90
24234;BME280;12365;43.554;1.388;2023-12-07T07:02:17;99903.88;;;3.27;64.22
24234;BME280;12365;43.554;1.388;2023-12-07T07:04:43;99910.03;;;3.29;64.28
24234;BME280;12365;43.554;1.388;2023-12-07T07:07:09;99901.53;;;3.30;64.18
24234;BME280;12365;43.554;1.388;2023-12-07T07:09:34;99906.56;;;3.07;64.66
24234;BME280;12365;43.554;1.388;2023-12-07T07:12:00;99913.16;;;3.03;65.15
24234;BME280;12365;43.554;1.388;2023-12-07T07:14:25;99908.88;;;3.03;65.04
24234;BME280;12365;43.554;1.388;2023-12-07T07:16:50;99910.69;;;3.04;65.42
24234;BME280;12365;43.554;1.388;2023-12-07T07:19:17;99911.72;;;3.07;65.13
24234;BME280;12365;43.554;1.388;2023-12-07T07:21:43;99909.25;;;3.08;65.31
24234;BME280;12365;43.554;1.388;2023-12-07T07:24:09;99907.78;;;3.22;65.15
24234;BME280;12365;43.554;1.388;2023-12-07T07:26:34;99905.59;;;3.16;64.96
24234;BME280;12365;43.554;1.388;2023-12-07T07:29:00;99913.59;;;3.19;65.46
24234;BME280;12365;43.554;1.388;2023-12-07T07:31:25;99911.78;;;3.18;65.44
24234;BME280;12365;43.554;1.388;2023-12-07T07:33:50;99911.13;;;3.21;65.75
24234;BME280;12365;43.554;1.388;2023-12-07T07:36:16;99905.44;;;3.25;65.41
24234;BME280;12365;43.554;1.388;2023-12-07T07:38:42;99888.53;;;3.29;65.33
24234;BME280;12365;43.554;1.388;2023-12-07T07:41:07;99884.53;;;3.32;65.34
24234;BME280;12365;43.554;1.388;2023-12-07T07:43:33;99882.31;;;3.37;65.12
24234;BME280;12365;43.554;1.388;2023-12-07T07:46:00;99874.91;;;3.41;65.10
24234;BME280;12365;43.554;1.388;2023-12-07T07:48:25;99871.78;;;3.45;65.47
24234;BME280;12365;43.554;1.388;2023-12-07T07:50:51;99878.19;;;3.51;65.53
24234;BME280;12365;43.554;1.388;2023-12-07T07:53:16;99879.44;;;3.78;65.03
24234;BME280;12365;43.554;1.388;2023-12-07T07:55:42;99876.09;;;3.90;64.69
24234;BME280;12365;43.554;1.388;2023-12-07T07:58:07;99882.50;;;3.96;64.15
24234;BME280;12365;43.554;1.388;2023-12-07T08:00:33;99880.94;;;3.98;63.90
24234;BME280;12365;43.554;1.388;2023-12-07T08:02:59;99894.81;;;4.00;64.09
24234;BME280;12365;43.554;1.388;2023-12-07T08:05:25;99894.94;;;4.01;64.29
24234;BME280;12365;43.554;1.388;2023-12-07T08:07:50;99895.31;;;4.06;64.00
24234;BME280;12365;43.554;1.388;2023-12-07T08:10:16;99876.78;;;4.11;64.37
24234;BME280;12365;43.554;1.388;2023-12-07T08:12:42;99883.31;;;4.18;63.94
24234;BME280;12365;43.554;1.388;2023-12-07T08:15:08;99870.06;;;4.25;64.38
24234;BME280;12365;43.554;1.388;2023-12-07T08:17:37;99866.38;;;4.33;64.29
24234;BME280;12365;43.554;1.388;2023-12-07T08:20:05;99862.66;;;4.42;64.47
24234;BME280;12365;43.554;1.388;2023-12-07T08:22:31;99869.19;;;4.48;63.96
24234;BME280;12365;43.554;1.388;2023-12-07T08:24:56;99866.25;;;4.55;63.93
24234;BME280;12365;43.554;1.388;2023-12-07T08:27:21;99856.47;;;4.63;64.09
24234;BME280;12365;43.554;1.388;2023-12-07T08:29:47;99855.34;;;4.71;64.46
24234;BME280;12365;43.554;1.388;2023-12-07T08:32:12;99860.19;;;4.78;63.80
24234;BME280;12365;43.554;1.388;2023-12-07T08:34:39;99852.66;;;4.82;63.78
24234;BME280;12365;43.554;1.388;2023-12-07T08:37:05;99853.06;;;4.88;64.03
24234;BME280;12365;43.554;1.388;2023-12-07T08:39:30;99850.94;;;4.94;63.56
24234;BME280;12365;43.554;1.388;2023-12-07T08:41:55;99847.00;;;4.99;63.77
24234;BME280;12365;43.554;1.388;2023-12-07T08:44:21;99855.28;;;5.07;63.82
24234;BME280;12365;43.554;1.388;2023-12-07T08:46:46;99843.78;;;5.15;64.17
24234;BME280;12365;43.554;1.388;2023-12-07T08:49:12;99846.03;;;5.22;63.55
24234;BME280;12365;43.554;1.388;2023-12-07T08:51:37;99852.63;;;5.30;64.28
24234;BME280;12365;43.554;1.388;2023-12-07T08:54:02;99843.00;;;5.41;64.00
24234;BME280;12365;43.554;1.388;2023-12-07T08:56:28;99838.88;;;5.31;64.30
24234;BME280;12365;43.554;1.388;2023-12-07T08:58:53;99828.44;;;5.30;64.94
24234;BME280;12365;43.554;1.388;2023-12-07T09:01:19;99832.66;;;5.41;64.98
24234;BME280;12365;43.554;1.388;2023-12-07T09:03:44;99824.94;;;5.54;64.66
24234;BME280;12365;43.554;1.388;2023-12-07T09:06:09;99818.22;;;5.70;64.74
24234;BME280;12365;43.554;1.388;2023-12-07T09:08:35;99813.28;;;5.86;65.29
24234;BME280;12365;43.554;1.388;2023-12-07T09:11:00;99810.94;;;6.02;65.08
24234;BME280;12365;43.554;1.388;2023-12-07T09:13:25;99809.88;;;6.25;65.21
24234;BME280;12365;43.554;1.388;2023-12-07T09:15:51;99811.44;;;6.50;65.31
24234;BME280;12365;43.554;1.388;2023-12-07T09:18:16;99810.53;;;6.76;65.04
24234;BME280;12365;43.554;1.388;2023-12-07T09:20:42;99799.09;;;7.01;64.84
24234;BME280;12365;43.554;1.388;2023-12-07T09:23:13;99796.31;;;7.26;64.86
24234;BME280;12365;43.554;1.388;2023-12-07T09:25:40;99794.31;;;7.50;64.85
24234;BME280;12365;43.554;1.388;2023-12-07T09:28:06;99793.38;;;7.77;64.85
24234;BME280;12365;43.554;1.388;2023-12-07T09:30:31;99788.09;;;8.06;64.94
24234;BME280;12365;43.554;1.388;2023-12-07T09:32:59;99775.75;;;8.33;64.60
24234;BME280;12365;43.554;1.388;2023-12-07T09:35:24;99772.69;;;8.55;64.49
24234;BME280;12365;43.554;1.388;2023-12-07T09:37:50;99768.44;;;8.72;64.46
24234;BME280;12365;43.554;1.388;2023-12-07T09:40:19;99772.13;;;8.92;64.40
24234;BME280;12365;43.554;1.388;2023-12-07T09:42:46;99765.44;;;9.13;64.21
24234;BME280;12365;43.554;1.388;2023-12-07T09:45:11;99761.00;;;9.27;63.75
24234;BME280;12365;43.554;1.388;2023-12-07T09:47:38;99773.69;;;9.37;63.77
24234;BME280;12365;43.554;1.388;2023-12-07T09:50:06;99772.19;;;9.42;63.96
24234;BME280;12365;43.554;1.388;2023-12-07T09:52:33;99765.84;;;9.53;63.75
24234;BME280;12365;43.554;1.388;2023-12-07T09:54:59;99773.25;;;9.62;63.51
24234;BME280;12365;43.554;1.388;2023-12-07T09:57:27;99768.56;;;9.73;63.51
24234;BME280;12365;43.554;1.388;2023-12-07T09:59:52;99759.56;;;9.84;63.44
24234;BME280;12365;43.554;1.388;2023-12-07T10:02:18;99756.75;;;9.97;63.44
24234;BME280;12365;43.554;1.388;2023-12-07T10:04:43;99752.97;;;10.09;63.06
24234;BME280;12365;43.554;1.388;2023-12-07T10:07:09;99738.91;;;10.23;63.33
24234;BME280;12365;43.554;1.388;2023-12-07T10:09:40;99734.53;;;10.40;63.23
24234;BME280;12365;43.554;1.388;2023-12-07T10:12:06;99739.56;;;10.55;63.06
24234;BME280;12365;43.554;1.388;2023-12-07T10:14:32;99725.34;;;10.66;62.59
24234;BME280;12365;43.554;1.388;2023-12-07T10:16:59;99726.84;;;10.80;62.60
24234;BME280;12365;43.554;1.388;2023-12-07T10:19:25;99728.25;;;10.92;62.43
24234;BME280;12365;43.554;1.388;2023-12-07T10:21:53;99734.03;;;11.04;62.18
24234;BME280;12365;43.554;1.388;2023-12-07T10:24:20;99718.75;;;11.13;62.11
24234;BME280;12365;43.554;1.388;2023-12-07T10:26:48;99724.41;;;11.22;61.82
24234;BME280;12365;43.554;1.388;2023-12-07T10:29:13;99720.66;;;11.37;61.85
24234;BME280;12365;43.554;1.388;2023-12-07T10:31:39;99718.56;;;11.49;61.57
24234;BME280;12365;43.554;1.388;2023-12-07T10:34:06;99706.81;;;11.59;61.44
24234;BME280;12365;43.554;1.388;2023-12-07T10:36:32;99697.88;;;11.75;61.61
24234;BME280;12365;43.554;1.388;2023-12-07T10:39:00;99690.19;;;11.78;61.33
24234;BME280;12365;43.554;1.388;2023-12-07T10:41:25;99692.81;;;11.78;61.10
24234;BME280;12365;43.554;1.388;2023-12-07T10:46:20;99670.47;;;11.86;61.05
24234;BME280;12365;43.554;1.388;2023-12-07T10:48:47;99669.09;;;11.94;61.16
24234;BME280;12365;43.554;1.388;2023-12-07T10:51:29;99667.09;;;12.09;60.95
24234;BME280;12365;43.554;1.388;2023-12-07T10:53:56;99652.25;;;12.31;60.71
24234;BME280;12365;43.554;1.388;2023-12-07T10:56:38;99641.53;;;12.47;60.52
24234;BME280;12365;43.554;1.388;2023-12-07T10:59:06;99636.56;;;12.53;60.35
24234;BME280;12365;43.554;1.388;2023-12-07T11:01:33;99630.66;;;12.59;60.09
24234;BME280;12365;43.554;1.388;2023-12-07T11:03:59;99620.50;;;12.68;60.01
24234;BME280;12365;43.554;1.388;2023-12-07T11:06:26;99613.94;;;12.79;59.75
24234;BME280;12365;43.554;1.388;2023-12-07T11:08:58;99616.91;;;12.89;59.68
24234;BME280;12365;43.554;1.388;2023-12-07T11:14:13;99611.16;;;12.99;59.43
24234;BME280;12365;43.554;1.388;2023-12-07T11:16:41;99600.69;;;12.99;59.22
24234;BME280;12365;43.554;1.388;2023-12-07T11:22:07;99604.69;;;12.89;59.08
24234;BME280;12365;43.554;1.388;2023-12-07T11:24:33;99604.53;;;12.85;58.93
24234;BME280;12365;43.554;1.388;2023-12-07T11:26:58;99613.16;;;12.82;58.94
24234;BME280;12365;43.554;1.388;2023-12-07T11:29:24;99606.09;;;12.79;58.82
24234;BME280;12365;43.554;1.388;2023-12-07T11:31:57;99610.38;;;13.01;58.31
24234;BME280;12365;43.554;1.388;2023-12-07T11:34:42;99598.34;;;13.07;58.10
24234;BME280;12365;43.554;1.388;2023-12-07T11:37:08;99593.75;;;13.01;57.94
24234;BME280;12365;43.554;1.388;2023-12-07T11:39:39;99586.31;;;12.88;58.11
24234;BME280;12365;43.554;1.388;2023-12-07T11:42:17;99577.56;;;12.87;58.11
24234;BME280;12365;43.554;1.388;2023-12-07T11:44:44;99570.59;;;12.88;57.93
24234;BME280;12365;43.554;1.388;2023-12-07T11:47:10;99579.28;;;12.63;58.53
24234;BME280;12365;43.554;1.388;2023-12-07T11:49:42;99565.81;;;12.52;58.74
24234;BME280;12365;43.554;1.388;2023-12-07T11:52:18;99564.78;;;12.47;58.80
24234;BME280;12365;43.554;1.388;2023-12-07T11:54:48;99569.94;;;12.45;59.02
24234;BME280;12365;43.554;1.388;2023-12-07T11:57:15;99571.63;;;12.43;58.91
24234;BME280;12365;43.554;1.388;2023-12-07T11:59:42;99554.19;;;12.44;59.07
24234;BME280;12365;43.554;1.388;2023-12-07T12:02:10;99542.09;;;12.47;59.04
24234;BME280;12365;43.554;1.388;2023-12-07T12:04:36;99532.69;;;12.52;59.21
24234;BME280;12365;43.554;1.388;2023-12-07T12:07:03;99538.88;;;12.54;59.04
24234;BME280;12365;43.554;1.388;2023-12-07T12:09:29;99540.78;;;12.58;59.12
24234;BME280;12365;43.554;1.388;2023-12-07T12:11:54;99542.66;;;12.63;58.90
24234;BME280;12365;43.554;1.388;2023-12-07T12:14:19;99544.50;;;12.65;58.92
24234;BME280;12365;43.554;1.388;2023-12-07T12:16:46;99536.63;;;12.65;58.88
24234;BME280;12365;43.554;1.388;2023-12-07T12:19:12;99541.94;;;12.67;58.96
24234;BME280;12365;43.554;1.388;2023-12-07T12:21:37;99534.19;;;12.70;58.83
24234;BME280;12365;43.554;1.388;2023-12-07T12:24:06;99527.28;;;12.72;58.93
24234;BME280;12365;43.554;1.388;2023-12-07T12:26:36;99527.38;;;12.75;58.80
24234;BME280;12365;43.554;1.388;2023-12-07T12:29:05;99511.75;;;12.76;58.77
24234;BME280;12365;43.554;1.388;2023-12-07T12:31:32;99502.09;;;12.75;58.85
24234;BME280;12365;43.554;1.388;2023-12-07T12:33:57;99502.97;;;12.76;58.77
24234;BME280;12365;43.554;1.388;2023-12-07T12:36:23;99494.22;;;12.74;58.65
24234;BME280;12365;43.554;1.388;2023-12-07T12:38:52;99496.84;;;12.75;58.68
24234;BME280;12365;43.554;1.388;2023-12-07T12:41:19;99491.69;;;12.77;58.73
24234;BME280;12365;43.554;1.388;2023-12-07T12:43:44;99490.03;;;12.79;58.59
24234;BME280;12365;43.554;1.388;2023-12-07T12:46:10;99487.50;;;12.82;58.66
24234;BME280;12365;43.554;1.388;2023-12-07T12:48:37;99483.31;;;12.87;58.54
24234;BME280;12365;43.554;1.388;2023-12-07T12:51:12;99471.16;;;12.89;58.51
24234;BME280;12365;43.554;1.388;2023-12-07T12:53:45;99475.66;;;12.93;58.34
24234;BME280;12365;43.554;1.388;2023-12-07T12:56:12;99484.53;;;12.98;58.33
24234;BME280;12365;43.554;1.388;2023-12-07T12:58:37;99480.09;;;12.96;58.12
24234;BME280;12365;43.554;1.388;2023-12-07T13:01:03;99473.19;;;12.98;58.16
24234;BME280;12365;43.554;1.388;2023-12-07T13:03:28;99454.91;;;12.99;58.21
24234;BME280;12365;43.554;1.388;2023-12-07T13:05:54;99456.69;;;13.00;58.14
24234;BME280;12365;43.554;1.388;2023-12-07T13:08:19;99456.69;;;13.00;58.04
24234;BME280;12365;43.554;1.388;2023-12-07T13:10:45;99469.00;;;13.03;58.05
24234;BME280;12365;43.554;1.388;2023-12-07T13:13:10;99465.56;;;13.06;57.99
24234;BME280;12365;43.554;1.388;2023-12-07T13:15:36;99458.59;;;13.06;57.97